Time;durP1;ratioP1;P1;durP2;ratioP2;P2;SDS_P1;SDS_P2;PMS_P1;PMS_P2;Temp;Humidity;BMP_temperature;BMP_pressure;BME280_temperature;BME280_humidity;BME280_pressure;Samples;Min_cycle;Max_cycle;Signal;HPM_P1;HPM_P2
2022/05/28 00:00:38;;;;;;;7.83;2.00;;;9.40;99.90;;;;;;5039451;28;20350;-52
2022/05/28 00:03:04;;;;;;;9.80;2.07;;;9.50;99.90;;;;;;5050509;28;20252;-51
2022/05/28 00:05:32;;;;;;;12.47;2.13;;;9.50;99.90;;;;;;5043608;28;20219;-52
2022/05/28 00:07:59;;;;;;;6.17;1.07;;;9.50;99.90;;;;;;5055060;28;20241;-54
2022/05/28 00:10:27;;;;;;;6.80;1.83;;;9.30;99.90;;;;;;5031683;28;20211;-53
2022/05/28 00:12:57;;;;;;;6.30;1.30;;;9.10;99.90;;;;;;5050508;28;20207;-50
2022/05/28 00:15:24;;;;;;;5.70;1.90;;;9.10;99.90;;;;;;5042769;28;20293;-51
2022/05/28 00:17:51;;;;;;;6.47;1.60;;;8.90;99.90;;;;;;5042298;28;20231;-53
2022/05/28 00:20:19;;;;;;;9.77;1.73;;;8.90;99.90;;;;;;5043663;28;20694;-51
2022/05/28 00:22:46;;;;;;;5.60;1.57;;;8.90;99.90;;;;;;5044396;28;20203;-52
2022/05/28 00:25:16;;;;;;;6.97;1.50;;;8.80;99.90;;;;;;5034017;28;20675;-53
2022/05/28 00:27:43;;;;;;;9.10;1.70;;;8.80;99.90;;;;;;5045969;28;20940;-53
2022/05/28 00:30:15;;;;;;;6.73;1.40;;;8.80;99.90;;;;;;5045205;28;20195;-49
2022/05/28 00:32:43;;;;;;;10.13;1.70;;;8.80;99.90;;;;;;5045379;28;20222;-54
2022/05/28 00:35:12;;;;;;;8.37;1.67;;;8.90;99.90;;;;;;5046503;28;20233;-50
2022/05/28 00:37:39;;;;;;;6.63;1.87;;;8.90;99.90;;;;;;5049280;28;20207;-53
2022/05/28 00:40:10;;;;;;;9.20;1.67;;;8.90;99.90;;;;;;5045932;28;20210;-48
2022/05/28 00:42:37;;;;;;;9.43;1.80;;;8.90;99.90;;;;;;5053985;28;20990;-49
2022/05/28 00:45:04;;;;;;;4.33;2.00;;;8.80;99.90;;;;;;5050431;28;20207;-53
2022/05/28 00:47:33;;;;;;;9.00;1.80;;;8.80;99.90;;;;;;5037996;28;21237;-51
2022/05/28 00:50:00;;;;;;;6.40;1.40;;;8.70;99.90;;;;;;5047162;28;20225;-50
2022/05/28 00:52:28;;;;;;;10.27;2.57;;;8.70;99.90;;;;;;5046746;28;20203;-54
2022/05/28 00:54:55;;;;;;;5.33;1.33;;;8.80;99.90;;;;;;5051293;28;20203;-54
2022/05/28 00:57:24;;;;;;;4.37;1.50;;;8.70;99.90;;;;;;5046801;28;20218;-54
2022/05/28 00:59:51;;;;;;;9.93;1.43;;;8.70;99.90;;;;;;5048524;28;20210;-55
2022/05/28 01:02:23;;;;;;;3.07;1.37;;;8.60;99.90;;;;;;5050666;28;20203;-53
2022/05/28 01:04:58;;;;;;;5.07;1.07;;;8.60;99.90;;;;;;5049239;28;20191;-54
2022/05/28 01:07:33;;;;;;;3.27;1.00;;;8.50;99.90;;;;;;5056105;28;20218;-56
2022/05/28 01:10:05;;;;;;;4.30;1.60;;;8.50;99.90;;;;;;5060748;28;20205;-52
2022/05/28 01:12:41;;;;;;;3.90;1.37;;;8.50;99.90;;;;;;5041373;28;20202;-53
2022/05/28 01:15:14;;;;;;;3.70;1.10;;;8.40;99.90;;;;;;5050047;28;20217;-55
2022/05/28 01:17:46;;;;;;;5.17;1.57;;;8.40;99.90;;;;;;5050499;28;20223;-50
2022/05/28 01:20:19;;;;;;;6.27;1.27;;;8.40;99.90;;;;;;5041189;28;20211;-53
2022/05/28 01:23:10;;;;;;;5.77;1.07;;;8.40;99.90;;;;;;5049413;28;20186;-53
2022/05/28 01:25:51;;;;;;;4.97;1.10;;;8.30;99.90;;;;;;5041265;28;20215;-48
2022/05/28 01:28:22;;;;;;;4.67;1.20;;;8.30;99.90;;;;;;5042430;28;20691;-56
2022/05/28 01:30:51;;;;;;;4.03;1.00;;;8.30;99.90;;;;;;5048071;28;20210;-51
2022/05/28 01:33:20;;;;;;;4.53;1.80;;;8.30;99.90;;;;;;5043584;28;20218;-52
2022/05/28 01:35:49;;;;;;;5.60;1.60;;;8.30;99.90;;;;;;5053455;28;20194;-53
2022/05/28 01:38:18;;;;;;;7.53;1.27;;;8.40;99.90;;;;;;5058294;28;20219;-53
2022/05/28 01:40:46;;;;;;;5.40;2.07;;;8.40;99.90;;;;;;5049991;28;20974;-54
2022/05/28 01:43:16;;;;;;;3.47;1.30;;;8.40;99.90;;;;;;5040474;28;20806;-55
2022/05/28 01:45:46;;;;;;;3.30;1.20;;;8.40;99.90;;;;;;5043720;28;20214;-53
2022/05/28 01:48:15;;;;;;;9.97;1.57;;;8.40;99.90;;;;;;5041930;28;20242;-55
2022/05/28 01:50:44;;;;;;;6.13;1.30;;;8.40;99.90;;;;;;5048639;28;20903;-51
2022/05/28 01:54:06;;;;;;;2.87;1.03;;;8.40;99.90;;;;;;5046292;28;20249;-54
2022/05/28 01:56:04;;;;;;;4.70;1.03;;;8.40;99.90;;;;;;5064356;28;20290;-51
2022/05/28 01:58:31;;;;;;;5.60;1.17;;;8.40;99.90;;;;;;5041578;28;20218;-51
2022/05/28 02:01:01;;;;;;;6.73;2.27;;;8.40;99.90;;;;;;5057160;28;20190;-52
2022/05/28 02:03:33;;;;;;;4.50;1.43;;;8.40;99.90;;;;;;5042022;28;20218;-54
2022/05/28 02:06:00;;;;;;;9.30;1.63;;;8.40;99.90;;;;;;5053388;28;20238;-53
2022/05/28 02:08:29;;;;;;;4.17;1.13;;;8.40;99.90;;;;;;5049878;28;20222;-52
2022/05/28 02:11:06;;;;;;;5.03;1.60;;;8.40;99.90;;;;;;5057638;28;20199;-54
2022/05/28 02:13:44;;;;;;;4.07;1.10;;;8.30;99.90;;;;;;5048107;28;20194;-53
2022/05/28 02:16:18;;;;;;;7.30;1.20;;;8.30;99.90;;;;;;5048992;28;20198;-54
2022/05/28 02:18:48;;;;;;;5.20;1.60;;;8.40;99.90;;;;;;5051505;28;20935;-50
2022/05/28 02:21:23;;;;;;;5.07;1.23;;;8.40;99.90;;;;;;5055547;28;20564;-52
2022/05/28 02:23:56;;;;;;;4.33;1.20;;;8.30;99.90;;;;;;5045926;28;20199;-52
2022/05/28 02:26:29;;;;;;;5.73;1.30;;;8.40;99.90;;;;;;5043464;28;20226;-49
2022/05/28 02:28:56;;;;;;;5.00;1.07;;;8.40;99.90;;;;;;5046141;28;20219;-47
2022/05/28 02:31:28;;;;;;;6.43;1.40;;;8.40;99.90;;;;;;5051486;28;20199;-54
2022/05/28 02:33:56;;;;;;;5.90;1.57;;;8.40;99.90;;;;;;5052790;28;20662;-47
2022/05/28 02:36:23;;;;;;;2.83;1.00;;;8.50;99.90;;;;;;5051804;28;20228;-56
2022/05/28 02:38:50;;;;;;;9.40;1.40;;;8.50;99.90;;;;;;5048737;28;20219;-53
2022/05/28 02:41:18;;;;;;;6.80;1.23;;;8.40;99.90;;;;;;5048188;28;20198;-54
2022/05/28 02:43:45;;;;;;;5.73;1.20;;;8.50;99.90;;;;;;5047048;28;20202;-54
2022/05/28 02:46:12;;;;;;;10.20;1.37;;;8.50;99.90;;;;;;5056603;28;20211;-51
2022/05/28 02:48:40;;;;;;;5.07;1.20;;;8.50;99.90;;;;;;5041120;28;20284;-53
2022/05/28 02:51:10;;;;;;;4.47;1.10;;;8.40;99.90;;;;;;5045186;28;20203;-51
2022/05/28 02:53:38;;;;;;;5.43;1.27;;;8.40;99.90;;;;;;5047160;28;20865;-52
2022/05/28 02:56:06;;;;;;;10.43;2.30;;;8.40;99.90;;;;;;5044154;28;20204;-50
2022/05/28 02:58:33;;;;;;;7.37;1.33;;;8.40;99.90;;;;;;5044178;28;20218;-54
2022/05/28 03:01:02;;;;;;;4.20;1.30;;;8.40;99.90;;;;;;5042787;28;20566;-54
2022/05/28 03:03:28;;;;;;;4.93;1.03;;;8.40;99.90;;;;;;5042579;28;20195;-50
2022/05/28 03:05:56;;;;;;;5.67;1.50;;;8.40;99.90;;;;;;5049117;28;20591;-54
2022/05/28 03:08:23;;;;;;;5.43;1.30;;;8.50;99.90;;;;;;5056413;28;20295;-53
2022/05/28 03:10:50;;;;;;;4.23;1.30;;;8.40;99.90;;;;;;5043401;28;20191;-50
2022/05/28 03:13:17;;;;;;;7.07;1.67;;;8.40;99.90;;;;;;5044625;28;20214;-53
2022/05/28 03:15:44;;;;;;;5.47;1.90;;;8.40;99.90;;;;;;5043131;28;20993;-51
2022/05/28 03:18:10;;;;;;;10.03;1.80;;;8.40;99.90;;;;;;5053481;28;20676;-48
2022/05/28 03:20:38;;;;;;;7.53;1.73;;;8.30;99.90;;;;;;5044627;28;20202;-52
2022/05/28 03:23:06;;;;;;;8.27;1.30;;;8.40;99.90;;;;;;5049790;28;20187;-55
2022/05/28 03:25:33;;;;;;;9.33;1.50;;;8.40;99.90;;;;;;5058335;28;20191;-53
2022/05/28 03:28:00;;;;;;;4.67;1.63;;;8.40;99.90;;;;;;5062950;28;20717;-50
2022/05/28 03:30:27;;;;;;;5.50;1.67;;;8.40;99.90;;;;;;5035560;28;20206;-53
2022/05/28 03:32:54;;;;;;;5.90;2.17;;;8.40;99.90;;;;;;5046572;28;20198;-52
2022/05/28 03:35:21;;;;;;;5.23;1.70;;;8.40;99.90;;;;;;5049611;28;20222;-52
2022/05/28 03:37:48;;;;;;;8.93;1.70;;;8.40;99.90;;;;;;5049734;28;20222;-53
2022/05/28 03:40:16;;;;;;;4.77;1.17;;;8.40;99.90;;;;;;5047702;28;20195;-55
2022/05/28 03:42:44;;;;;;;12.03;1.87;;;8.40;99.90;;;;;;5046477;28;20278;-54
2022/05/28 03:45:11;;;;;;;5.73;1.57;;;8.40;99.90;;;;;;5041338;28;20393;-52
2022/05/28 03:47:38;;;;;;;9.43;1.67;;;8.40;99.90;;;;;;5042871;28;21075;-55
2022/05/28 03:50:05;;;;;;;8.90;1.87;;;8.40;99.90;;;;;;5048435;28;20195;-53
2022/05/28 03:52:33;;;;;;;2.87;1.50;;;8.40;99.90;;;;;;5042540;28;20231;-51
2022/05/28 03:55:00;;;;;;;7.43;1.53;;;8.40;99.90;;;;;;5040886;28;20253;-54
2022/05/28 03:57:31;;;;;;;8.83;2.00;;;8.40;99.90;;;;;;5044301;28;20211;-52
2022/05/28 03:59:58;;;;;;;5.87;1.50;;;8.40;99.90;;;;;;5039680;28;20203;-55
2022/05/28 04:02:26;;;;;;;5.47;1.90;;;8.50;99.90;;;;;;5044993;28;20211;-48
2022/05/28 04:04:53;;;;;;;8.90;2.17;;;8.50;99.90;;;;;;5056080;28;20763;-54
2022/05/28 04:07:21;;;;;;;11.07;1.80;;;8.50;99.90;;;;;;5054831;28;20225;-50
2022/05/28 04:09:47;;;;;;;11.23;2.37;;;8.50;99.90;;;;;;5046141;28;20195;-54
2022/05/28 04:12:15;;;;;;;12.77;1.93;;;8.60;99.90;;;;;;5043753;28;20268;-53
2022/05/28 04:14:44;;;;;;;9.80;2.27;;;8.60;99.90;;;;;;5050770;28;20199;-53
2022/05/28 04:17:11;;;;;;;13.57;3.13;;;8.70;99.90;;;;;;5047971;28;20218;-55
2022/05/28 04:19:38;;;;;;;10.67;1.90;;;8.80;99.90;;;;;;5057256;28;20282;-52
2022/05/28 04:22:05;;;;;;;8.97;2.07;;;8.90;99.90;;;;;;5055959;28;20878;-52
2022/05/28 04:24:32;;;;;;;11.23;2.13;;;9.00;99.90;;;;;;5055404;28;20211;-54
2022/05/28 04:26:59;;;;;;;16.80;3.03;;;9.00;99.90;;;;;;5054468;28;20218;-53
2022/05/28 04:29:26;;;;;;;12.67;2.20;;;9.10;99.90;;;;;;5061129;28;20721;-53
2022/05/28 04:31:54;;;;;;;14.90;2.23;;;9.10;99.90;;;;;;5043313;28;20730;-55
2022/05/28 04:34:21;;;;;;;11.60;2.13;;;9.20;99.90;;;;;;5044886;28;20217;-52
2022/05/28 04:36:48;;;;;;;10.13;2.57;;;9.20;99.90;;;;;;5048536;28;20202;-54
2022/05/28 04:39:15;;;;;;;10.17;1.77;;;9.30;99.90;;;;;;5051128;28;20316;-52
2022/05/28 04:41:42;;;;;;;9.37;2.27;;;9.30;99.90;;;;;;5059391;28;20206;-53
2022/05/28 04:44:09;;;;;;;10.27;2.70;;;9.40;99.90;;;;;;5062068;28;20198;-54
2022/05/28 04:46:36;;;;;;;13.40;2.27;;;9.40;99.90;;;;;;5061435;28;20194;-51
2022/05/28 04:49:05;;;;;;;11.07;2.90;;;9.40;99.90;;;;;;5043850;28;20227;-48
2022/05/28 04:51:32;;;;;;;9.47;2.50;;;9.50;99.90;;;;;;5057228;28;20226;-52
2022/05/28 04:53:59;;;;;;;12.93;2.07;;;9.50;99.90;;;;;;5042245;28;20257;-53
2022/05/28 04:56:26;;;;;;;10.73;2.10;;;9.50;99.90;;;;;;5056140;28;20202;-51
2022/05/28 04:58:53;;;;;;;7.73;2.17;;;9.60;99.90;;;;;;5050350;28;20223;-53
2022/05/28 05:01:21;;;;;;;6.57;2.60;;;9.60;99.90;;;;;;5046975;28;20187;-49
2022/05/28 05:03:48;;;;;;;8.63;2.17;;;9.60;99.90;;;;;;5042575;28;20203;-53
2022/05/28 05:06:16;;;;;;;20.27;2.37;;;9.70;99.90;;;;;;5050528;28;20215;-54
2022/05/28 05:08:43;;;;;;;4.90;2.20;;;9.70;99.90;;;;;;5049561;28;20562;-49
2022/05/28 05:11:10;;;;;;;8.13;1.83;;;9.70;99.90;;;;;;5043807;28;20211;-50
2022/05/28 05:13:37;;;;;;;10.37;2.00;;;9.70;99.90;;;;;;5041745;28;20213;-53
2022/05/28 05:16:08;;;;;;;7.60;2.03;;;9.80;99.90;;;;;;5045925;28;20207;-54
2022/05/28 05:18:35;;;;;;;7.33;1.80;;;9.80;99.90;;;;;;5044381;28;20973;-49
2022/05/28 05:21:02;;;;;;;6.83;1.93;;;9.80;99.90;;;;;;5031174;28;20591;-52
2022/05/28 05:23:30;;;;;;;10.50;1.77;;;9.80;99.90;;;;;;5051612;28;20203;-54
2022/05/28 05:25:57;;;;;;;12.93;2.37;;;9.80;99.90;;;;;;5039086;28;20214;-53
2022/05/28 05:28:24;;;;;;;9.33;1.90;;;9.80;99.90;;;;;;5056190;28;20263;-52
2022/05/28 05:30:50;;;;;;;10.43;1.83;;;9.90;99.90;;;;;;5045538;28;20195;-51
2022/05/28 05:33:17;;;;;;;9.83;2.53;;;9.90;99.90;;;;;;5045995;28;20206;-50
2022/05/28 05:35:43;;;;;;;11.83;2.97;;;10.00;99.90;;;;;;5043987;28;20956;-50
2022/05/28 05:38:11;;;;;;;5.57;1.97;;;10.10;99.90;;;;;;5046034;28;20229;-53
2022/05/28 05:40:39;;;;;;;6.87;1.67;;;10.20;99.90;;;;;;5047040;28;20202;-54
2022/05/28 05:43:06;;;;;;;6.63;1.73;;;10.20;99.90;;;;;;5052049;28;20192;-54
2022/05/28 05:45:33;;;;;;;8.20;2.03;;;10.30;99.90;;;;;;5049944;28;20202;-53
2022/05/28 05:48:00;;;;;;;8.57;1.97;;;10.40;99.90;;;;;;5046905;28;20943;-52
2022/05/28 05:50:27;;;;;;;11.63;2.20;;;10.50;99.90;;;;;;5048291;28;20920;-51
2022/05/28 05:52:53;;;;;;;5.87;1.50;;;10.60;99.90;;;;;;5047995;28;20286;-54
2022/05/28 05:55:21;;;;;;;6.13;1.40;;;10.60;99.90;;;;;;5053518;28;20235;-54
2022/05/28 05:57:49;;;;;;;6.83;2.40;;;10.70;99.90;;;;;;5050205;28;20222;-52
2022/05/28 06:00:17;;;;;;;10.33;1.97;;;10.70;99.90;;;;;;5050970;28;20265;-43
2022/05/28 06:02:44;;;;;;;9.83;2.37;;;10.70;99.90;;;;;;5049013;28;20667;-54
2022/05/28 06:05:11;;;;;;;4.83;1.70;;;10.70;99.90;;;;;;5043442;28;20445;-53
2022/05/28 06:07:38;;;;;;;5.40;2.20;;;10.80;99.90;;;;;;5051905;28;20695;-56
2022/05/28 06:10:09;;;;;;;5.63;1.80;;;10.80;99.90;;;;;;5044574;28;20207;-54
2022/05/28 06:12:36;;;;;;;12.40;2.10;;;10.90;99.90;;;;;;5042927;28;20639;-53
2022/05/28 06:15:06;;;;;;;5.73;2.00;;;10.90;99.90;;;;;;5044757;28;20968;-53
2022/05/28 06:17:34;;;;;;;8.03;1.60;;;10.90;99.90;;;;;;5055056;28;20222;-52
2022/05/28 06:20:01;;;;;;;7.97;1.90;;;10.90;99.90;;;;;;5041411;28;20219;-54
2022/05/28 06:22:28;;;;;;;8.83;2.10;;;10.90;99.90;;;;;;5044447;28;20214;-55
2022/05/28 06:24:56;;;;;;;4.53;1.83;;;10.90;99.90;;;;;;5041457;28;21065;-55
2022/05/28 06:27:23;;;;;;;8.17;2.30;;;11.00;99.90;;;;;;5049328;28;20214;-55
2022/05/28 06:29:50;;;;;;;8.23;2.23;;;11.00;99.90;;;;;;5041405;28;20321;-54
2022/05/28 06:32:18;;;;;;;10.43;2.20;;;11.10;99.90;;;;;;5047823;28;20894;-55
2022/05/28 06:34:45;;;;;;;11.87;1.70;;;11.10;99.90;;;;;;5045107;28;20238;-55
2022/05/28 06:37:12;;;;;;;10.57;2.00;;;11.20;99.90;;;;;;5041023;28;20972;-51
2022/05/28 06:39:39;;;;;;;10.43;2.43;;;11.30;99.90;;;;;;5046922;28;20663;-54
2022/05/28 06:42:06;;;;;;;7.83;2.30;;;11.40;99.90;;;;;;5046801;28;20903;-55
2022/05/28 06:44:35;;;;;;;9.20;2.03;;;11.50;99.90;;;;;;5054256;28;20231;-52
2022/05/28 06:47:03;;;;;;;8.53;2.23;;;11.60;99.90;;;;;;5043326;28;20199;-55
2022/05/28 06:49:31;;;;;;;5.40;1.60;;;11.70;99.90;;;;;;5048674;28;20752;-54
2022/05/28 06:51:58;;;;;;;8.50;2.07;;;11.70;99.90;;;;;;5030025;28;21470;-54
2022/05/28 06:54:25;;;;;;;7.30;1.83;;;11.70;99.90;;;;;;5059562;28;20570;-49
2022/05/28 06:56:52;;;;;;;12.33;1.90;;;11.70;99.90;;;;;;5040008;28;20265;-54
2022/05/28 06:59:19;;;;;;;11.00;1.90;;;11.70;99.90;;;;;;5047332;28;20571;-52
2022/05/28 07:01:46;;;;;;;7.03;2.13;;;11.70;99.90;;;;;;5042963;28;20749;-54
2022/05/28 07:04:12;;;;;;;8.20;2.80;;;11.70;99.90;;;;;;5044607;28;20202;-54
2022/05/28 07:06:40;;;;;;;10.63;1.73;;;11.70;99.90;;;;;;5054303;28;20209;-53
2022/05/28 07:09:07;;;;;;;9.47;1.83;;;11.70;99.90;;;;;;5045318;28;20217;-54
2022/05/28 07:11:34;;;;;;;6.70;2.10;;;11.80;99.90;;;;;;5042431;28;20769;-54
2022/05/28 07:14:01;;;;;;;5.37;1.80;;;11.70;99.90;;;;;;5041805;28;20207;-53
2022/05/28 07:16:28;;;;;;;12.70;2.93;;;11.80;99.90;;;;;;5044351;28;20203;-49
2022/05/28 07:18:55;;;;;;;5.60;1.87;;;11.90;99.90;;;;;;5045584;28;20731;-53
2022/05/28 07:21:21;;;;;;;9.43;1.77;;;11.90;99.90;;;;;;5047825;28;20533;-54
2022/05/28 07:23:51;;;;;;;11.47;2.10;;;12.00;99.90;;;;;;5034639;28;20199;-55
2022/05/28 07:26:18;;;;;;;7.13;1.90;;;12.20;99.90;;;;;;5044871;28;20211;-55
2022/05/28 07:28:46;;;;;;;7.40;1.90;;;12.30;99.90;;;;;;5041274;28;20230;-52
2022/05/28 07:31:14;;;;;;;10.67;2.23;;;12.40;99.90;;;;;;5043690;28;20211;-52
2022/05/28 07:33:44;;;;;;;7.13;2.40;;;12.50;99.90;;;;;;5039388;28;20207;-53
2022/05/28 07:36:12;;;;;;;8.70;1.93;;;12.60;99.90;;;;;;5047869;28;20403;-51
2022/05/28 07:38:41;;;;;;;4.57;1.87;;;12.50;99.90;;;;;;5037786;28;20222;-51
2022/05/28 07:41:12;;;;;;;11.30;2.93;;;12.50;99.90;;;;;;5045395;28;20192;-52
2022/05/28 07:43:40;;;;;;;6.17;1.83;;;12.40;99.90;;;;;;5042295;28;20201;-55
2022/05/28 07:46:12;;;;;;;7.40;1.60;;;12.30;99.90;;;;;;5047997;28;20198;-52
2022/05/28 07:48:39;;;;;;;8.53;1.93;;;12.20;99.90;;;;;;5056460;28;20222;-53
2022/05/28 07:51:06;;;;;;;8.37;1.93;;;12.00;99.90;;;;;;5050688;28;20922;-53
2022/05/28 07:53:33;;;;;;;9.77;2.73;;;11.90;99.90;;;;;;5053336;28;20191;-53
2022/05/28 07:56:01;;;;;;;14.30;1.90;;;11.80;99.90;;;;;;5043164;28;20916;-54
2022/05/28 07:58:29;;;;;;;12.37;2.27;;;11.70;99.90;;;;;;5046589;28;20302;-53
2022/05/28 08:00:57;;;;;;;3.93;1.83;;;11.80;99.90;;;;;;5053904;28;20222;-55
2022/05/28 08:03:23;;;;;;;6.63;1.93;;;11.80;99.90;;;;;;5043580;28;20198;-52
2022/05/28 08:05:52;;;;;;;6.97;1.80;;;11.90;99.90;;;;;;5060251;28;20667;-53
2022/05/28 08:08:21;;;;;;;10.33;2.27;;;12.10;99.90;;;;;;5049927;28;20223;-53
2022/05/28 08:10:48;;;;;;;7.50;1.70;;;12.20;99.90;;;;;;5044861;28;20329;-53
2022/05/28 08:13:18;;;;;;;11.10;2.20;;;12.30;99.90;;;;;;5044855;28;20210;-53
2022/05/28 08:15:47;;;;;;;5.97;1.53;;;12.40;99.90;;;;;;5046574;28;20210;-55
2022/05/28 08:18:17;;;;;;;8.43;2.40;;;12.60;99.90;;;;;;5041294;28;20207;-54
2022/05/28 08:23:28;;;;;;;11.40;2.40;;;13.00;99.90;;;;;;5046833;28;20214;-56
2022/05/28 08:25:55;;;;;;;8.77;2.70;;;13.00;99.90;;;;;;5037343;28;20691;-55
2022/05/28 08:28:22;;;;;;;12.30;1.90;;;12.70;99.90;;;;;;5053803;28;20269;-50
2022/05/28 08:30:51;;;;;;;6.67;2.30;;;12.10;99.90;;;;;;5047320;28;20207;-55
2022/05/28 08:33:19;;;;;;;9.80;2.10;;;11.60;99.90;;;;;;5043431;28;22759;-53
2022/05/28 08:35:47;;;;;;;5.37;2.50;;;11.50;99.90;;;;;;5058536;28;20198;-55
2022/05/28 08:38:16;;;;;;;9.33;2.40;;;11.40;99.90;;;;;;5057360;28;20984;-55
2022/05/28 08:40:46;;;;;;;7.23;2.00;;;11.30;99.90;;;;;;5045643;28;20700;-55
2022/05/28 08:43:15;;;;;;;7.90;2.57;;;11.30;99.90;;;;;;5047759;28;20219;-51
2022/05/28 08:45:44;;;;;;;9.37;2.53;;;11.30;99.90;;;;;;5049994;28;20286;-56
2022/05/28 08:48:17;;;;;;;7.87;1.97;;;11.40;99.90;;;;;;5041379;28;20984;-56
2022/05/28 08:50:51;;;;;;;9.40;2.53;;;11.50;99.90;;;;;;5045701;28;20199;-54
2022/05/28 08:53:23;;;;;;;9.40;2.43;;;11.60;99.90;;;;;;5043947;28;20191;-54
2022/05/28 08:55:53;;;;;;;5.73;1.93;;;11.60;99.90;;;;;;5038427;28;20583;-54
2022/05/28 08:58:24;;;;;;;6.27;1.87;;;11.50;99.90;;;;;;5049065;28;20238;-52
2022/05/28 09:00:56;;;;;;;11.17;2.23;;;11.40;99.90;;;;;;5053284;28;20207;-54
2022/05/28 09:03:26;;;;;;;10.00;1.73;;;11.40;99.90;;;;;;5047128;28;20194;-54
2022/05/28 09:05:59;;;;;;;7.17;1.47;;;11.40;99.90;;;;;;5062883;28;20210;-54
2022/05/28 09:08:29;;;;;;;9.93;2.10;;;11.40;99.90;;;;;;5058708;28;20206;-55
2022/05/28 09:10:59;;;;;;;10.10;1.83;;;11.40;99.90;;;;;;5045362;28;20573;-53
2022/05/28 09:13:36;;;;;;;9.07;1.97;;;11.50;99.90;;;;;;5046439;28;20207;-53
2022/05/28 09:16:04;;;;;;;5.10;1.67;;;11.70;99.90;;;;;;5041991;28;20277;-54
2022/05/28 09:18:36;;;;;;;8.80;2.37;;;11.80;99.90;;;;;;5046849;28;20211;-52
2022/05/28 09:21:04;;;;;;;7.10;1.70;;;11.90;99.90;;;;;;5042063;28;20858;-56
2022/05/28 09:23:41;;;;;;;8.33;1.83;;;12.00;99.90;;;;;;5045790;28;20210;-54
2022/05/28 09:26:09;;;;;;;9.40;1.70;;;11.90;99.90;;;;;;5042328;28;20455;-53
2022/05/28 09:28:50;;;;;;;6.00;1.50;;;11.90;99.90;;;;;;5043104;28;20246;-56
2022/05/28 09:31:34;;;;;;;9.97;1.67;;;11.90;99.90;;;;;;5050858;28;20257;-52
2022/05/28 09:34:21;;;;;;;5.03;1.47;;;12.00;99.90;;;;;;5039759;28;20199;-54
2022/05/28 09:37:00;;;;;;;7.43;1.90;;;12.10;99.90;;;;;;5054733;28;20390;-50
2022/05/28 09:39:39;;;;;;;9.23;1.57;;;12.10;99.90;;;;;;5048595;28;20234;-55
2022/05/28 09:42:12;;;;;;;7.73;2.07;;;12.10;99.90;;;;;;5040457;28;20858;-53
2022/05/28 09:44:53;;;;;;;7.27;1.77;;;12.10;99.90;;;;;;5039121;28;20210;-53
2022/05/28 09:47:20;;;;;;;11.13;2.07;;;12.20;99.90;;;;;;5052715;28;20199;-55
2022/05/28 09:49:50;;;;;;;9.50;1.90;;;12.20;99.90;;;;;;5044070;28;20211;-54
2022/05/28 09:52:24;;;;;;;10.90;2.17;;;12.30;99.90;;;;;;5053314;28;20202;-52
2022/05/28 09:54:50;;;;;;;8.20;1.80;;;12.50;99.90;;;;;;5048101;28;20198;-56
2022/05/28 09:57:25;;;;;;;6.57;2.00;;;12.60;99.90;;;;;;5047684;28;20199;-55
2022/05/28 09:59:57;;;;;;;7.53;1.70;;;12.70;99.90;;;;;;5039527;28;20207;-53
2022/05/28 10:02:27;;;;;;;7.30;2.27;;;12.60;99.90;;;;;;5052893;28;20200;-52
2022/05/28 10:04:57;;;;;;;12.87;2.60;;;12.70;99.90;;;;;;5042112;28;20203;-52
2022/05/28 10:07:33;;;;;;;9.00;2.10;;;12.60;99.90;;;;;;5056980;28;20212;-55
2022/05/28 10:10:01;;;;;;;8.90;2.00;;;12.70;99.90;;;;;;5047941;28;20210;-50
2022/05/28 10:12:30;;;;;;;5.00;2.17;;;12.70;99.90;;;;;;5050894;28;20632;-51
2022/05/28 10:15:00;;;;;;;5.80;2.03;;;12.60;99.90;;;;;;5043147;28;20205;-50
2022/05/28 10:17:29;;;;;;;9.13;2.27;;;12.60;99.90;;;;;;5057889;28;20209;-53
2022/05/28 10:19:58;;;;;;;9.80;1.53;;;12.60;99.90;;;;;;5041735;28;20731;-51
2022/05/28 10:22:27;;;;;;;6.33;1.53;;;12.70;99.90;;;;;;5048975;28;20206;-54
2022/05/28 10:24:58;;;;;;;7.07;1.60;;;12.80;99.90;;;;;;5053656;28;20202;-54
2022/05/28 10:27:30;;;;;;;7.50;2.00;;;12.90;99.90;;;;;;5043275;28;20688;-50
2022/05/28 10:30:02;;;;;;;6.13;1.87;;;13.00;99.90;;;;;;5037616;28;20214;-55
2022/05/28 10:32:34;;;;;;;8.63;1.63;;;13.00;99.90;;;;;;5053033;28;20290;-51
2022/05/28 10:35:12;;;;;;;6.07;1.83;;;13.00;99.90;;;;;;5050152;28;20195;-53
2022/05/28 10:37:40;;;;;;;10.40;2.30;;;13.10;99.90;;;;;;5043300;28;20230;-53
2022/05/28 10:40:13;;;;;;;7.37;1.70;;;13.20;99.90;;;;;;5053257;28;20196;-48
2022/05/28 10:42:40;;;;;;;7.73;1.93;;;13.30;99.90;;;;;;5050690;28;20203;-54
2022/05/28 10:45:08;;;;;;;7.97;1.93;;;13.30;99.90;;;;;;5057262;28;20242;-49
2022/05/28 10:48:07;;;;;;;8.30;1.70;;;13.50;99.90;;;;;;5044513;28;20222;-49
2022/05/28 10:50:45;;;;;;;8.03;1.63;;;13.50;99.90;;;;;;5043660;28;20227;-49
2022/05/28 10:53:22;;;;;;;10.13;2.17;;;13.40;99.90;;;;;;5048485;28;20215;-53
2022/05/28 10:56:09;;;;;;;4.83;1.53;;;13.30;99.90;;;;;;5045043;28;20195;-53
2022/05/28 10:58:48;;;;;;;6.40;2.13;;;13.30;99.90;;;;;;5041290;28;20219;-51
2022/05/28 11:01:30;;;;;;;8.50;1.70;;;13.40;99.90;;;;;;5049142;28;20210;-55
2022/05/28 11:04:24;;;;;;;6.80;1.60;;;13.30;99.90;;;;;;5049105;28;20191;-52
2022/05/28 11:07:18;;;;;;;10.57;1.63;;;13.30;99.90;;;;;;5039807;28;20206;-54
2022/05/28 11:10:01;;;;;;;7.47;1.87;;;13.30;99.90;;;;;;5047721;28;20210;-55
2022/05/28 11:12:42;;;;;;;8.40;1.83;;;13.20;99.90;;;;;;5052645;28;20202;-55
2022/05/28 11:15:32;;;;;;;13.07;1.80;;;13.10;99.90;;;;;;5045722;28;20195;-53
2022/05/28 11:18:14;;;;;;;7.73;1.73;;;12.90;99.90;;;;;;5036173;28;20908;-54
2022/05/28 11:20:47;;;;;;;9.80;1.97;;;12.40;99.90;;;;;;5053236;28;20198;-54
2022/05/28 11:23:31;;;;;;;6.97;2.23;;;12.10;99.90;;;;;;5052300;28;20213;-52
2022/05/28 11:26:06;;;;;;;8.23;2.57;;;12.10;99.90;;;;;;5042064;28;20928;-55
2022/05/28 11:29:02;;;;;;;11.60;2.10;;;11.90;99.90;;;;;;5045638;28;20227;-50
2022/05/28 11:31:33;;;;;;;7.53;2.13;;;11.80;99.90;;;;;;5055736;28;20199;-52
2022/05/28 11:34:07;;;;;;;9.63;2.43;;;11.90;99.90;;;;;;5041908;28;20926;-55
2022/05/28 11:36:41;;;;;;;9.33;2.07;;;12.00;99.90;;;;;;5053866;28;20202;-53
2022/05/28 11:39:16;;;;;;;7.37;1.90;;;12.20;99.90;;;;;;5047003;28;20225;-53
2022/05/28 11:41:50;;;;;;;7.47;1.90;;;12.30;99.90;;;;;;5043181;28;20547;-52
2022/05/28 11:44:24;;;;;;;11.40;2.30;;;12.40;99.90;;;;;;5048563;28;20690;-59
2022/05/28 11:46:58;;;;;;;12.83;2.70;;;12.50;99.90;;;;;;5040819;28;20253;-57
2022/05/28 11:52:30;;;;;;;8.03;2.43;;;12.90;99.90;;;;;;5051287;28;20273;-52
2022/05/28 11:55:05;;;;;;;9.30;2.20;;;13.20;99.90;;;;;;5041310;28;21031;-55
2022/05/28 11:57:39;;;;;;;8.73;2.13;;;13.40;99.90;;;;;;5051789;28;20783;-60
2022/05/28 12:00:08;;;;;;;15.27;2.43;;;13.40;99.90;;;;;;5039149;28;20212;-56
2022/05/28 12:02:42;;;;;;;12.13;2.10;;;13.30;99.90;;;;;;5053578;28;20213;-54
2022/05/28 12:05:21;;;;;;;8.67;1.60;;;13.40;99.90;;;;;;5041636;28;20191;-51
2022/05/28 12:07:55;;;;;;;8.93;3.20;;;13.50;99.90;;;;;;5048970;28;20309;-56
2022/05/28 12:10:44;;;;;;;11.50;1.73;;;13.60;99.90;;;;;;5044881;28;20213;-53
2022/05/28 12:13:11;;;;;;;11.47;2.10;;;13.60;99.90;;;;;;5043586;28;20892;-53
2022/05/28 12:15:39;;;;;;;11.73;1.80;;;13.60;99.90;;;;;;5052081;28;20199;-51
2022/05/28 12:18:23;;;;;;;7.10;1.80;;;13.50;99.90;;;;;;5034345;28;20218;-53
2022/05/28 12:20:53;;;;;;;6.60;1.47;;;13.50;99.90;;;;;;5047749;28;20202;-52
2022/05/28 12:23:29;;;;;;;6.67;1.50;;;13.50;99.90;;;;;;5051447;28;20209;-51
2022/05/28 12:25:58;;;;;;;6.87;1.70;;;13.50;99.90;;;;;;5044643;28;20190;-52
2022/05/28 12:28:26;;;;;;;5.83;1.57;;;13.50;99.90;;;;;;5052702;28;20238;-51
2022/05/28 12:30:54;;;;;;;11.67;1.87;;;13.60;99.90;;;;;;5038090;28;20249;-50
2022/05/28 12:33:28;;;;;;;6.37;1.87;;;13.60;99.90;;;;;;5041323;28;22132;-50
2022/05/28 12:36:06;;;;;;;8.37;1.90;;;13.60;99.90;;;;;;5055698;28;20303;-52
2022/05/28 12:38:43;;;;;;;9.47;2.03;;;13.50;99.90;;;;;;5052690;28;20220;-50
2022/05/28 12:41:22;;;;;;;2.73;0.90;;;13.40;99.90;;;;;;5056355;28;20202;-51
2022/05/28 12:44:00;;;;;;;6.43;1.33;;;13.20;99.90;;;;;;5046869;28;20213;-50
2022/05/28 12:46:43;;;;;;;6.90;1.40;;;13.20;99.90;;;;;;5042239;28;20213;-50
2022/05/28 12:49:13;;;;;;;5.93;2.17;;;13.10;99.90;;;;;;5040647;28;20240;-53
2022/05/28 12:51:57;;;;;;;7.53;1.63;;;13.20;99.90;;;;;;5059557;28;20187;-50
2022/05/28 12:54:27;;;;;;;5.60;1.40;;;13.20;99.90;;;;;;5043016;28;20233;-53
2022/05/28 12:57:07;;;;;;;8.83;1.20;;;13.40;99.90;;;;;;5047136;28;20211;-48
2022/05/28 12:59:36;;;;;;;10.20;1.73;;;13.50;99.90;;;;;;5045659;28;20199;-53
2022/05/28 13:02:22;;;;;;;6.53;1.80;;;13.50;99.90;;;;;;5049631;28;20190;-48
2022/05/28 13:04:55;;;;;;;7.17;1.60;;;13.50;99.90;;;;;;5041912;28;20217;-48
2022/05/28 13:07:27;;;;;;;6.50;1.50;;;13.40;99.90;;;;;;5051597;28;20203;-47
2022/05/28 13:10:04;;;;;;;5.33;1.40;;;13.30;99.90;;;;;;5056665;28;20202;-50